KUIN/UIN METAR and TAF weather

Enter ICAO airport designator
Station Type Date Time Source
KUIN METAR 2018/12/19 02:54 UTC NOAA

KUIN 190254Z AUTO 15007KT 10SM CLR 03/M02 A2999 RMK AO2 SLP160 T00281022 56012


Station Type Date Time Source
KUIN Decoded METAR 2018/12/19 02:54 UTC NOAA

QUINCY MUNI. BALDWIN FIELD, IL, United States (KUIN) 39-56N 091-12W
Dec 18, 2018 - 09:54 PM EST / 2018.12.19 0254 UTC
Wind: from the SSE (150 degrees) at 8 MPH (7 KT):0
Visibility: 10 mile(s):0
Sky conditions: clear
Temperature: 37.0 F (2.8 C)
Dew Point: 28.0 F (-2.2 C)
Relative Humidity: 69%
Pressure (altimeter): 29.99 in. Hg (1015 hPa)
Pressure tendency: 0.04 inches (1.2 hPa) lower than three hours ago
ob: KUIN 190254Z AUTO 15007KT 10SM CLR 03/M02 A2999 RMK AO2 SLP160 T00281022 56012
cycle: 3

Station Type Date Time Source
KUIN TAF 2018/12/18 18:36 UTC NOAA

TAF KUIN 181733Z 1818/1918 16010KT P6SM SKC
FM190700 18008KT P6SM BKN250
FM191600 20012KT P6SM BKN150


Example: see airport list